sensor_id;sensor_type;location;lat;lon;timestamp;temperature;humidity
43697;DHT22;29301;47.620;19.560;2023-06-22T00:00:53;22.90;81.80
43697;DHT22;29301;47.620;19.560;2023-06-22T00:03:19;22.90;81.50
43697;DHT22;29301;47.620;19.560;2023-06-22T00:05:46;22.90;81.20
43697;DHT22;29301;47.620;19.560;2023-06-22T00:08:12;22.90;81.20
43697;DHT22;29301;47.620;19.560;2023-06-22T00:10:38;22.80;80.60
43697;DHT22;29301;47.620;19.560;2023-06-22T00:13:05;22.70;81.20
43697;DHT22;29301;47.620;19.560;2023-06-22T00:15:31;22.70;81.00
43697;DHT22;29301;47.620;19.560;2023-06-22T00:17:57;22.40;82.80
43697;DHT22;29301;47.620;19.560;2023-06-22T00:20:23;22.40;83.70
43697;DHT22;29301;47.620;19.560;2023-06-22T00:22:56;22.40;84.40
43697;DHT22;29301;47.620;19.560;2023-06-22T00:25:23;22.30;82.90
43697;DHT22;29301;47.620;19.560;2023-06-22T00:27:49;22.30;83.30
43697;DHT22;29301;47.620;19.560;2023-06-22T00:30:16;22.30;82.80
43697;DHT22;29301;47.620;19.560;2023-06-22T00:32:43;22.00;85.10
43697;DHT22;29301;47.620;19.560;2023-06-22T00:35:09;21.80;88.30
43697;DHT22;29301;47.620;19.560;2023-06-22T00:37:36;21.80;90.00
43697;DHT22;29301;47.620;19.560;2023-06-22T00:40:02;21.80;90.50
43697;DHT22;29301;47.620;19.560;2023-06-22T00:42:30;21.80;90.90
43697;DHT22;29301;47.620;19.560;2023-06-22T00:44:55;21.80;90.80
43697;DHT22;29301;47.620;19.560;2023-06-22T00:47:21;21.70;91.20
43697;DHT22;29301;47.620;19.560;2023-06-22T00:49:48;21.80;90.90
43697;DHT22;29301;47.620;19.560;2023-06-22T00:52:17;22.00;89.90
43697;DHT22;29301;47.620;19.560;2023-06-22T00:54:50;22.10;88.40
43697;DHT22;29301;47.620;19.560;2023-06-22T00:57:17;22.30;86.40
43697;DHT22;29301;47.620;19.560;2023-06-22T00:59:44;22.40;84.60
43697;DHT22;29301;47.620;19.560;2023-06-22T01:02:10;22.40;83.80
43697;DHT22;29301;47.620;19.560;2023-06-22T01:04:38;22.50;83.10
43697;DHT22;29301;47.620;19.560;2023-06-22T01:07:21;22.60;82.80
43697;DHT22;29301;47.620;19.560;2023-06-22T01:10:17;22.40;83.60
43697;DHT22;29301;47.620;19.560;2023-06-22T01:12:52;22.30;85.50
43697;DHT22;29301;47.620;19.560;2023-06-22T01:15:28;22.30;85.10
43697;DHT22;29301;47.620;19.560;2023-06-22T01:17:56;22.40;83.80
43697;DHT22;29301;47.620;19.560;2023-06-22T01:20:23;22.50;82.50
43697;DHT22;29301;47.620;19.560;2023-06-22T01:25:33;22.60;80.80
43697;DHT22;29301;47.620;19.560;2023-06-22T01:28:10;22.70;80.30
43697;DHT22;29301;47.620;19.560;2023-06-22T01:30:45;22.60;79.60
43697;DHT22;29301;47.620;19.560;2023-06-22T01:33:13;22.60;79.90
43697;DHT22;29301;47.620;19.560;2023-06-22T01:35:40;22.50;80.00
43697;DHT22;29301;47.620;19.560;2023-06-22T01:38:06;22.50;80.10
43697;DHT22;29301;47.620;19.560;2023-06-22T01:40:34;22.50;80.30
43697;DHT22;29301;47.620;19.560;2023-06-22T01:43:03;22.40;80.70
43697;DHT22;29301;47.620;19.560;2023-06-22T01:45:29;22.40;80.80
43697;DHT22;29301;47.620;19.560;2023-06-22T01:47:56;22.40;80.60
43697;DHT22;29301;47.620;19.560;2023-06-22T01:50:21;22.40;80.60
43697;DHT22;29301;47.620;19.560;2023-06-22T01:52:47;22.40;81.10
43697;DHT22;29301;47.620;19.560;2023-06-22T01:55:13;22.30;80.90
43697;DHT22;29301;47.620;19.560;2023-06-22T01:57:39;22.30;81.30
43697;DHT22;29301;47.620;19.560;2023-06-22T02:00:15;22.30;81.70
43697;DHT22;29301;47.620;19.560;2023-06-22T02:02:54;22.40;82.30
43697;DHT22;29301;47.620;19.560;2023-06-22T02:05:23;22.40;82.60
43697;DHT22;29301;47.620;19.560;2023-06-22T02:08:04;22.40;83.20
43697;DHT22;29301;47.620;19.560;2023-06-22T02:10:32;22.40;83.60
43697;DHT22;29301;47.620;19.560;2023-06-22T02:13:01;22.40;84.00
43697;DHT22;29301;47.620;19.560;2023-06-22T02:15:28;22.40;84.10
43697;DHT22;29301;47.620;19.560;2023-06-22T02:17:54;22.50;84.10
43697;DHT22;29301;47.620;19.560;2023-06-22T02:20:20;22.50;84.10
43697;DHT22;29301;47.620;19.560;2023-06-22T02:22:46;22.50;83.70
43697;DHT22;29301;47.620;19.560;2023-06-22T02:25:11;22.50;83.70
43697;DHT22;29301;47.620;19.560;2023-06-22T02:27:37;22.30;84.90
43697;DHT22;29301;47.620;19.560;2023-06-22T02:30:24;22.30;86.10
43697;DHT22;29301;47.620;19.560;2023-06-22T02:32:49;22.20;87.20
43697;DHT22;29301;47.620;19.560;2023-06-22T02:35:27;22.20;88.00
43697;DHT22;29301;47.620;19.560;2023-06-22T02:37:57;22.30;90.00
43697;DHT22;29301;47.620;19.560;2023-06-22T02:40:23;22.20;89.50
43697;DHT22;29301;47.620;19.560;2023-06-22T02:42:49;22.20;88.50
43697;DHT22;29301;47.620;19.560;2023-06-22T02:45:14;22.20;89.00
43697;DHT22;29301;47.620;19.560;2023-06-22T02:47:40;22.10;90.00
43697;DHT22;29301;47.620;19.560;2023-06-22T02:50:06;22.10;90.10
43697;DHT22;29301;47.620;19.560;2023-06-22T02:52:32;22.10;90.40
43697;DHT22;29301;47.620;19.560;2023-06-22T02:54:58;22.20;90.50
43697;DHT22;29301;47.620;19.560;2023-06-22T02:57:23;22.00;90.80
43697;DHT22;29301;47.620;19.560;2023-06-22T02:59:49;22.00;91.00
43697;DHT22;29301;47.620;19.560;2023-06-22T03:02:14;22.00;91.00
43697;DHT22;29301;47.620;19.560;2023-06-22T03:04:40;22.00;91.30
43697;DHT22;29301;47.620;19.560;2023-06-22T03:07:06;22.00;91.50
43697;DHT22;29301;47.620;19.560;2023-06-22T03:09:31;22.00;91.40
43697;DHT22;29301;47.620;19.560;2023-06-22T03:11:57;22.10;91.20
43697;DHT22;29301;47.620;19.560;2023-06-22T03:14:23;22.00;91.60
43697;DHT22;29301;47.620;19.560;2023-06-22T03:16:49;21.80;92.70
43697;DHT22;29301;47.620;19.560;2023-06-22T03:19:14;21.80;93.00
43697;DHT22;29301;47.620;19.560;2023-06-22T03:21:40;21.70;93.30
43697;DHT22;29301;47.620;19.560;2023-06-22T03:24:07;21.80;93.40
43697;DHT22;29301;47.620;19.560;2023-06-22T03:26:33;21.80;92.90
43697;DHT22;29301;47.620;19.560;2023-06-22T03:29:00;21.90;92.60
43697;DHT22;29301;47.620;19.560;2023-06-22T03:31:25;22.00;92.50
43697;DHT22;29301;47.620;19.560;2023-06-22T03:33:51;22.00;92.10
43697;DHT22;29301;47.620;19.560;2023-06-22T03:36:18;22.10;91.80
43697;DHT22;29301;47.620;19.560;2023-06-22T03:38:48;22.10;91.40
43697;DHT22;29301;47.620;19.560;2023-06-22T03:41:14;22.20;91.90
43697;DHT22;29301;47.620;19.560;2023-06-22T03:43:40;22.20;91.80
43697;DHT22;29301;47.620;19.560;2023-06-22T03:46:06;22.30;91.40
43697;DHT22;29301;47.620;19.560;2023-06-22T03:48:31;22.30;90.90
43697;DHT22;29301;47.620;19.560;2023-06-22T03:50:58;22.40;90.70
43697;DHT22;29301;47.620;19.560;2023-06-22T03:53:24;22.40;90.30
43697;DHT22;29301;47.620;19.560;2023-06-22T03:55:51;22.30;90.90
43697;DHT22;29301;47.620;19.560;2023-06-22T03:58:18;22.10;92.10
43697;DHT22;29301;47.620;19.560;2023-06-22T04:00:51;22.00;93.00
43697;DHT22;29301;47.620;19.560;2023-06-22T04:03:18;22.00;92.90
43697;DHT22;29301;47.620;19.560;2023-06-22T04:05:44;22.10;92.60
43697;DHT22;29301;47.620;19.560;2023-06-22T04:08:10;22.20;91.90
43697;DHT22;29301;47.620;19.560;2023-06-22T04:10:35;22.30;91.40
43697;DHT22;29301;47.620;19.560;2023-06-22T04:13:01;22.30;91.00
43697;DHT22;29301;47.620;19.560;2023-06-22T04:15:27;22.40;90.90
43697;DHT22;29301;47.620;19.560;2023-06-22T04:17:54;22.30;91.20
43697;DHT22;29301;47.620;19.560;2023-06-22T04:20:20;22.30;90.70
43697;DHT22;29301;47.620;19.560;2023-06-22T04:22:46;22.40;90.70
43697;DHT22;29301;47.620;19.560;2023-06-22T04:25:11;22.40;90.50
43697;DHT22;29301;47.620;19.560;2023-06-22T04:27:37;22.50;90.10
43697;DHT22;29301;47.620;19.560;2023-06-22T04:30:06;22.60;89.00
43697;DHT22;29301;47.620;19.560;2023-06-22T04:32:35;22.60;88.10
43697;DHT22;29301;47.620;19.560;2023-06-22T04:35:05;22.70;87.20
43697;DHT22;29301;47.620;19.560;2023-06-22T04:37:35;22.70;86.60
43697;DHT22;29301;47.620;19.560;2023-06-22T04:40:00;22.70;86.90
43697;DHT22;29301;47.620;19.560;2023-06-22T04:42:26;22.80;88.60
43697;DHT22;29301;47.620;19.560;2023-06-22T04:44:52;22.80;89.50
43697;DHT22;29301;47.620;19.560;2023-06-22T04:47:17;22.80;89.70
43697;DHT22;29301;47.620;19.560;2023-06-22T04:49:43;22.90;90.10
43697;DHT22;29301;47.620;19.560;2023-06-22T04:52:11;22.90;90.20
43697;DHT22;29301;47.620;19.560;2023-06-22T04:54:38;22.90;90.50
43697;DHT22;29301;47.620;19.560;2023-06-22T04:57:06;22.90;90.60
43697;DHT22;29301;47.620;19.560;2023-06-22T04:59:36;22.90;90.50
43697;DHT22;29301;47.620;19.560;2023-06-22T05:02:04;22.90;90.60
43697;DHT22;29301;47.620;19.560;2023-06-22T05:04:31;23.00;90.80
43697;DHT22;29301;47.620;19.560;2023-06-22T05:06:59;23.00;91.20
43697;DHT22;29301;47.620;19.560;2023-06-22T05:09:25;23.10;91.10
43697;DHT22;29301;47.620;19.560;2023-06-22T05:11:51;23.10;90.80
43697;DHT22;29301;47.620;19.560;2023-06-22T05:14:17;23.20;90.60
43697;DHT22;29301;47.620;19.560;2023-06-22T05:16:44;23.10;90.60
43697;DHT22;29301;47.620;19.560;2023-06-22T05:19:10;23.20;90.50
43697;DHT22;29301;47.620;19.560;2023-06-22T05:21:36;23.30;90.40
43697;DHT22;29301;47.620;19.560;2023-06-22T05:24:02;23.40;89.50
43697;DHT22;29301;47.620;19.560;2023-06-22T05:26:33;23.50;88.50
43697;DHT22;29301;47.620;19.560;2023-06-22T05:29:00;23.50;87.40
43697;DHT22;29301;47.620;19.560;2023-06-22T05:31:27;23.50;87.70
43697;DHT22;29301;47.620;19.560;2023-06-22T05:33:54;23.50;86.70
43697;DHT22;29301;47.620;19.560;2023-06-22T05:36:20;23.50;85.90
43697;DHT22;29301;47.620;19.560;2023-06-22T05:38:47;23.50;85.90
43697;DHT22;29301;47.620;19.560;2023-06-22T05:41:13;23.50;85.30
43697;DHT22;29301;47.620;19.560;2023-06-22T05:43:40;23.60;84.30
43697;DHT22;29301;47.620;19.560;2023-06-22T05:46:05;23.60;83.30
43697;DHT22;29301;47.620;19.560;2023-06-22T05:48:31;23.70;81.60
43697;DHT22;29301;47.620;19.560;2023-06-22T05:50:57;23.70;81.50
43697;DHT22;29301;47.620;19.560;2023-06-22T05:53:23;23.70;81.90
43697;DHT22;29301;47.620;19.560;2023-06-22T05:55:49;23.80;81.70
43697;DHT22;29301;47.620;19.560;2023-06-22T05:58:15;24.00;81.10
43697;DHT22;29301;47.620;19.560;2023-06-22T06:00:41;24.00;80.60
43697;DHT22;29301;47.620;19.560;2023-06-22T06:03:07;24.10;80.60
43697;DHT22;29301;47.620;19.560;2023-06-22T06:05:34;24.20;79.70
43697;DHT22;29301;47.620;19.560;2023-06-22T06:08:00;24.30;78.70
43697;DHT22;29301;47.620;19.560;2023-06-22T06:10:26;24.40;78.50
43697;DHT22;29301;47.620;19.560;2023-06-22T06:12:53;24.50;76.20
43697;DHT22;29301;47.620;19.560;2023-06-22T06:15:18;24.40;75.70
43697;DHT22;29301;47.620;19.560;2023-06-22T06:17:49;24.40;76.50
43697;DHT22;29301;47.620;19.560;2023-06-22T06:20:17;24.40;75.50
43697;DHT22;29301;47.620;19.560;2023-06-22T06:22:43;24.40;77.70
43697;DHT22;29301;47.620;19.560;2023-06-22T06:25:09;24.40;79.60
43697;DHT22;29301;47.620;19.560;2023-06-22T06:27:35;24.50;81.00
43697;DHT22;29301;47.620;19.560;2023-06-22T06:30:01;24.50;80.20
43697;DHT22;29301;47.620;19.560;2023-06-22T06:32:27;24.70;80.30
43697;DHT22;29301;47.620;19.560;2023-06-22T06:34:52;24.80;80.30
43697;DHT22;29301;47.620;19.560;2023-06-22T06:37:18;25.00;78.80
43697;DHT22;29301;47.620;19.560;2023-06-22T06:39:44;25.10;77.60
43697;DHT22;29301;47.620;19.560;2023-06-22T06:42:10;25.20;74.40
43697;DHT22;29301;47.620;19.560;2023-06-22T06:44:37;25.30;72.90
43697;DHT22;29301;47.620;19.560;2023-06-22T06:47:04;25.30;71.10
43697;DHT22;29301;47.620;19.560;2023-06-22T06:49:29;25.50;69.00
43697;DHT22;29301;47.620;19.560;2023-06-22T06:51:55;25.80;64.50
43697;DHT22;29301;47.620;19.560;2023-06-22T06:54:21;25.90;61.50
43697;DHT22;29301;47.620;19.560;2023-06-22T06:56:47;25.90;60.60
43697;DHT22;29301;47.620;19.560;2023-06-22T06:59:14;26.10;60.30
43697;DHT22;29301;47.620;19.560;2023-06-22T07:01:41;26.10;59.50
43697;DHT22;29301;47.620;19.560;2023-06-22T07:04:07;26.30;58.50
43697;DHT22;29301;47.620;19.560;2023-06-22T07:06:32;26.40;56.40
43697;DHT22;29301;47.620;19.560;2023-06-22T07:08:59;26.70;56.60
43697;DHT22;29301;47.620;19.560;2023-06-22T07:11:25;26.80;52.40
43697;DHT22;29301;47.620;19.560;2023-06-22T07:13:51;26.90;53.20
43697;DHT22;29301;47.620;19.560;2023-06-22T07:16:16;27.00;52.50
43697;DHT22;29301;47.620;19.560;2023-06-22T07:18:42;27.10;52.50
43697;DHT22;29301;47.620;19.560;2023-06-22T07:21:08;27.30;53.30
43697;DHT22;29301;47.620;19.560;2023-06-22T07:23:34;27.50;53.80
43697;DHT22;29301;47.620;19.560;2023-06-22T07:26:00;27.70;52.90
43697;DHT22;29301;47.620;19.560;2023-06-22T07:28:31;27.90;52.90
43697;DHT22;29301;47.620;19.560;2023-06-22T07:31:02;28.10;52.10
43697;DHT22;29301;47.620;19.560;2023-06-22T07:33:29;28.20;51.90
43697;DHT22;29301;47.620;19.560;2023-06-22T07:35:54;28.40;49.60
43697;DHT22;29301;47.620;19.560;2023-06-22T07:38:20;28.60;49.30
43697;DHT22;29301;47.620;19.560;2023-06-22T07:40:47;28.80;46.70
43697;DHT22;29301;47.620;19.560;2023-06-22T07:43:12;28.80;47.80
43697;DHT22;29301;47.620;19.560;2023-06-22T07:45:38;28.80;49.30
43697;DHT22;29301;47.620;19.560;2023-06-22T07:48:06;29.00;48.10
43697;DHT22;29301;47.620;19.560;2023-06-22T07:50:32;29.00;45.90
43697;DHT22;29301;47.620;19.560;2023-06-22T07:52:58;28.90;46.60
43697;DHT22;29301;47.620;19.560;2023-06-22T07:55:23;29.00;46.50
43697;DHT22;29301;47.620;19.560;2023-06-22T07:57:49;29.30;45.80
43697;DHT22;29301;47.620;19.560;2023-06-22T08:00:17;29.50;45.50
43697;DHT22;29301;47.620;19.560;2023-06-22T08:02:45;29.60;45.00
43697;DHT22;29301;47.620;19.560;2023-06-22T08:05:11;29.50;44.50
43697;DHT22;29301;47.620;19.560;2023-06-22T08:07:37;29.50;45.20
43697;DHT22;29301;47.620;19.560;2023-06-22T08:10:09;29.50;45.00
43697;DHT22;29301;47.620;19.560;2023-06-22T08:12:35;29.60;43.30
43697;DHT22;29301;47.620;19.560;2023-06-22T08:15:01;29.90;43.70
43697;DHT22;29301;47.620;19.560;2023-06-22T08:17:26;30.10;43.50
43697;DHT22;29301;47.620;19.560;2023-06-22T08:19:52;29.90;41.50
43697;DHT22;29301;47.620;19.560;2023-06-22T08:22:18;29.80;42.60
43697;DHT22;29301;47.620;19.560;2023-06-22T08:24:44;29.80;42.60
43697;DHT22;29301;47.620;19.560;2023-06-22T08:27:10;29.80;42.30
43697;DHT22;29301;47.620;19.560;2023-06-22T08:29:40;29.80;41.70
43697;DHT22;29301;47.620;19.560;2023-06-22T08:32:09;29.60;40.50
43697;DHT22;29301;47.620;19.560;2023-06-22T08:34:34;29.20;42.80
43697;DHT22;29301;47.620;19.560;2023-06-22T08:37:00;29.60;43.30
43697;DHT22;29301;47.620;19.560;2023-06-22T08:39:26;30.10;41.10
43697;DHT22;29301;47.620;19.560;2023-06-22T08:41:53;30.40;40.60
43697;DHT22;29301;47.620;19.560;2023-06-22T08:44:19;30.80;40.30
43697;DHT22;29301;47.620;19.560;2023-06-22T08:46:45;30.70;39.50
43697;DHT22;29301;47.620;19.560;2023-06-22T08:49:10;30.50;38.90
43697;DHT22;29301;47.620;19.560;2023-06-22T08:51:36;30.40;37.20
43697;DHT22;29301;47.620;19.560;2023-06-22T08:54:02;30.00;36.80
43697;DHT22;29301;47.620;19.560;2023-06-22T08:56:28;30.30;37.60
43697;DHT22;29301;47.620;19.560;2023-06-22T08:58:53;30.50;37.60
43697;DHT22;29301;47.620;19.560;2023-06-22T09:01:19;30.80;37.40
43697;DHT22;29301;47.620;19.560;2023-06-22T09:03:45;31.10;37.20
43697;DHT22;29301;47.620;19.560;2023-06-22T09:06:20;31.30;36.60
43697;DHT22;29301;47.620;19.560;2023-06-22T09:08:45;31.50;36.00
43697;DHT22;29301;47.620;19.560;2023-06-22T09:11:12;31.60;35.00
43697;DHT22;29301;47.620;19.560;2023-06-22T09:13:38;31.90;34.90
43697;DHT22;29301;47.620;19.560;2023-06-22T09:16:04;32.00;34.10
43697;DHT22;29301;47.620;19.560;2023-06-22T09:18:30;32.10;33.50
43697;DHT22;29301;47.620;19.560;2023-06-22T09:20:55;32.20;32.90
43697;DHT22;29301;47.620;19.560;2023-06-22T09:23:21;31.80;36.30
43697;DHT22;29301;47.620;19.560;2023-06-22T09:25:47;31.50;33.80
43697;DHT22;29301;47.620;19.560;2023-06-22T09:28:14;31.00;35.20
43697;DHT22;29301;47.620;19.560;2023-06-22T09:30:39;30.80;35.70
43697;DHT22;29301;47.620;19.560;2023-06-22T09:33:05;30.80;36.40
43697;DHT22;29301;47.620;19.560;2023-06-22T09:35:31;31.10;36.20
43697;DHT22;29301;47.620;19.560;2023-06-22T09:37:56;31.40;35.10
43697;DHT22;29301;47.620;19.560;2023-06-22T09:40:22;31.80;35.60
43697;DHT22;29301;47.620;19.560;2023-06-22T09:42:47;32.20;35.10
43697;DHT22;29301;47.620;19.560;2023-06-22T09:45:13;31.60;33.70
43697;DHT22;29301;47.620;19.560;2023-06-22T09:47:39;31.60;35.00
43697;DHT22;29301;47.620;19.560;2023-06-22T09:50:05;31.90;34.80
43697;DHT22;29301;47.620;19.560;2023-06-22T09:52:31;32.30;34.40
43697;DHT22;29301;47.620;19.560;2023-06-22T09:54:57;32.50;33.30
43697;DHT22;29301;47.620;19.560;2023-06-22T09:57:23;32.70;32.50
43697;DHT22;29301;47.620;19.560;2023-06-22T09:59:48;32.90;33.20
43697;DHT22;29301;47.620;19.560;2023-06-22T10:02:14;33.00;31.60
43697;DHT22;29301;47.620;19.560;2023-06-22T10:04:39;33.20;31.50
43697;DHT22;29301;47.620;19.560;2023-06-22T10:07:05;33.20;31.80
43697;DHT22;29301;47.620;19.560;2023-06-22T10:09:31;33.10;31.40
43697;DHT22;29301;47.620;19.560;2023-06-22T10:11:57;33.00;32.30
43697;DHT22;29301;47.620;19.560;2023-06-22T10:14:23;33.00;32.30
43697;DHT22;29301;47.620;19.560;2023-06-22T10:16:52;32.80;30.80
43697;DHT22;29301;47.620;19.560;2023-06-22T10:19:18;32.30;32.70
43697;DHT22;29301;47.620;19.560;2023-06-22T10:21:43;32.10;32.90
43697;DHT22;29301;47.620;19.560;2023-06-22T10:24:09;32.00;32.90
43697;DHT22;29301;47.620;19.560;2023-06-22T10:26:35;31.80;34.40
43697;DHT22;29301;47.620;19.560;2023-06-22T10:29:04;32.20;33.80
43697;DHT22;29301;47.620;19.560;2023-06-22T10:31:30;32.30;33.50
43697;DHT22;29301;47.620;19.560;2023-06-22T10:33:55;32.50;33.40
43697;DHT22;29301;47.620;19.560;2023-06-22T10:36:22;32.80;33.10
43697;DHT22;29301;47.620;19.560;2023-06-22T10:38:48;32.80;33.00
43697;DHT22;29301;47.620;19.560;2023-06-22T10:41:14;32.50;32.40
43697;DHT22;29301;47.620;19.560;2023-06-22T10:43:40;32.30;33.80
43697;DHT22;29301;47.620;19.560;2023-06-22T10:46:06;32.50;32.80
43697;DHT22;29301;47.620;19.560;2023-06-22T10:48:32;32.60;32.60
43697;DHT22;29301;47.620;19.560;2023-06-22T10:50:58;32.80;32.10
43697;DHT22;29301;47.620;19.560;2023-06-22T10:53:24;33.00;32.40
43697;DHT22;29301;47.620;19.560;2023-06-22T10:55:49;32.40;32.20
43697;DHT22;29301;47.620;19.560;2023-06-22T10:58:17;32.30;34.20
43697;DHT22;29301;47.620;19.560;2023-06-22T11:00:43;32.50;32.70
43697;DHT22;29301;47.620;19.560;2023-06-22T11:03:09;32.80;32.90
43697;DHT22;29301;47.620;19.560;2023-06-22T11:05:34;32.90;32.70
43697;DHT22;29301;47.620;19.560;2023-06-22T11:08:00;32.80;31.20
43697;DHT22;29301;47.620;19.560;2023-06-22T11:10:25;32.60;31.90
43697;DHT22;29301;47.620;19.560;2023-06-22T11:12:52;32.90;32.10
43697;DHT22;29301;47.620;19.560;2023-06-22T11:15:18;32.70;31.20
43697;DHT22;29301;47.620;19.560;2023-06-22T11:17:44;32.90;32.50
43697;DHT22;29301;47.620;19.560;2023-06-22T11:20:10;33.20;31.50
43697;DHT22;29301;47.620;19.560;2023-06-22T11:22:38;33.30;31.60
43697;DHT22;29301;47.620;19.560;2023-06-22T11:25:05;33.30;31.00
43697;DHT22;29301;47.620;19.560;2023-06-22T11:27:31;33.00;31.20
43697;DHT22;29301;47.620;19.560;2023-06-22T11:29:56;32.60;33.50
43697;DHT22;29301;47.620;19.560;2023-06-22T11:32:22;32.80;32.10
43697;DHT22;29301;47.620;19.560;2023-06-22T11:34:48;33.20;31.70
43697;DHT22;29301;47.620;19.560;2023-06-22T11:37:14;33.50;31.80
43697;DHT22;29301;47.620;19.560;2023-06-22T11:39:41;33.40;32.20
43697;DHT22;29301;47.620;19.560;2023-06-22T11:42:07;33.10;32.50
43697;DHT22;29301;47.620;19.560;2023-06-22T11:44:33;32.90;32.10
43697;DHT22;29301;47.620;19.560;2023-06-22T11:46:59;33.00;31.80
43697;DHT22;29301;47.620;19.560;2023-06-22T11:49:26;33.30;30.90
43697;DHT22;29301;47.620;19.560;2023-06-22T11:51:52;33.60;31.90
43697;DHT22;29301;47.620;19.560;2023-06-22T11:54:18;33.60;31.00
43697;DHT22;29301;47.620;19.560;2023-06-22T11:56:44;33.40;31.10
43697;DHT22;29301;47.620;19.560;2023-06-22T11:59:09;32.90;33.00
43697;DHT22;29301;47.620;19.560;2023-06-22T12:01:35;33.10;32.80
43697;DHT22;29301;47.620;19.560;2023-06-22T12:04:01;33.00;31.00
43697;DHT22;29301;47.620;19.560;2023-06-22T12:06:26;32.40;31.50
43697;DHT22;29301;47.620;19.560;2023-06-22T12:08:52;32.20;32.00
43697;DHT22;29301;47.620;19.560;2023-06-22T12:11:18;32.30;31.90
43697;DHT22;29301;47.620;19.560;2023-06-22T12:13:43;32.30;32.20
43697;DHT22;29301;47.620;19.560;2023-06-22T12:16:09;32.40;32.50
43697;DHT22;29301;47.620;19.560;2023-06-22T12:18:35;32.20;31.80
43697;DHT22;29301;47.620;19.560;2023-06-22T12:21:00;32.30;31.70
43697;DHT22;29301;47.620;19.560;2023-06-22T12:23:26;32.60;31.40
43697;DHT22;29301;47.620;19.560;2023-06-22T12:25:52;32.90;30.40
43697;DHT22;29301;47.620;19.560;2023-06-22T12:28:17;33.00;31.30
43697;DHT22;29301;47.620;19.560;2023-06-22T12:30:43;33.30;31.40
43697;DHT22;29301;47.620;19.560;2023-06-22T12:33:09;33.60;30.10
43697;DHT22;29301;47.620;19.560;2023-06-22T12:35:35;33.60;30.00
43697;DHT22;29301;47.620;19.560;2023-06-22T12:38:00;33.20;31.00
43697;DHT22;29301;47.620;19.560;2023-06-22T12:40:26;33.10;30.90
43697;DHT22;29301;47.620;19.560;2023-06-22T12:42:52;33.30;30.90
43697;DHT22;29301;47.620;19.560;2023-06-22T12:45:17;33.40;30.30
43697;DHT22;29301;47.620;19.560;2023-06-22T12:47:44;32.90;31.50
43697;DHT22;29301;47.620;19.560;2023-06-22T12:50:09;33.00;30.30
43697;DHT22;29301;47.620;19.560;2023-06-22T12:52:37;33.30;30.20
43697;DHT22;29301;47.620;19.560;2023-06-22T12:55:05;33.30;29.40
43697;DHT22;29301;47.620;19.560;2023-06-22T12:57:31;33.10;30.00
43697;DHT22;29301;47.620;19.560;2023-06-22T12:59:57;33.10;28.30
43697;DHT22;29301;47.620;19.560;2023-06-22T13:02:24;32.80;28.90
43697;DHT22;29301;47.620;19.560;2023-06-22T13:04:49;33.10;29.40
43697;DHT22;29301;47.620;19.560;2023-06-22T13:07:15;33.40;29.70
43697;DHT22;29301;47.620;19.560;2023-06-22T13:09:41;33.30;29.60
43697;DHT22;29301;47.620;19.560;2023-06-22T13:12:06;33.00;29.10
43697;DHT22;29301;47.620;19.560;2023-06-22T13:14:32;32.80;30.30
43697;DHT22;29301;47.620;19.560;2023-06-22T13:16:58;33.00;30.10
43697;DHT22;29301;47.620;19.560;2023-06-22T13:19:23;33.30;30.00
43697;DHT22;29301;47.620;19.560;2023-06-22T13:21:49;33.30;30.00
43697;DHT22;29301;47.620;19.560;2023-06-22T13:24:15;33.20;30.30
43697;DHT22;29301;47.620;19.560;2023-06-22T13:26:42;33.30;30.10
43697;DHT22;29301;47.620;19.560;2023-06-22T13:29:07;33.20;30.00
43697;DHT22;29301;47.620;19.560;2023-06-22T13:31:33;33.30;29.80
43697;DHT22;29301;47.620;19.560;2023-06-22T13:33:59;33.10;29.80
43697;DHT22;29301;47.620;19.560;2023-06-22T13:36:24;33.10;30.30
43697;DHT22;29301;47.620;19.560;2023-06-22T13:38:50;32.90;30.00
43697;DHT22;29301;47.620;19.560;2023-06-22T13:41:16;32.80;30.80
43697;DHT22;29301;47.620;19.560;2023-06-22T13:43:42;32.80;30.60
43697;DHT22;29301;47.620;19.560;2023-06-22T13:46:07;32.60;31.50
43697;DHT22;29301;47.620;19.560;2023-06-22T13:48:33;32.90;31.30
43697;DHT22;29301;47.620;19.560;2023-06-22T13:50:59;33.20;30.20
43697;DHT22;29301;47.620;19.560;2023-06-22T13:53:25;33.40;29.50
43697;DHT22;29301;47.620;19.560;2023-06-22T13:55:53;33.50;29.50
43697;DHT22;29301;47.620;19.560;2023-06-22T13:58:19;33.70;29.50
43697;DHT22;29301;47.620;19.560;2023-06-22T14:00:48;33.60;29.40
43697;DHT22;29301;47.620;19.560;2023-06-22T14:03:14;33.40;29.70
43697;DHT22;29301;47.620;19.560;2023-06-22T14:05:42;32.90;30.70
43697;DHT22;29301;47.620;19.560;2023-06-22T14:08:08;32.60;31.30
43697;DHT22;29301;47.620;19.560;2023-06-22T14:10:34;32.20;31.30
43697;DHT22;29301;47.620;19.560;2023-06-22T14:13:00;32.30;32.30
43697;DHT22;29301;47.620;19.560;2023-06-22T14:15:26;32.50;32.50
43697;DHT22;29301;47.620;19.560;2023-06-22T14:17:52;32.90;32.00
43697;DHT22;29301;47.620;19.560;2023-06-22T14:20:18;33.20;30.90
43697;DHT22;29301;47.620;19.560;2023-06-22T14:22:43;33.10;31.10
43697;DHT22;29301;47.620;19.560;2023-06-22T14:25:09;33.00;31.50
43697;DHT22;29301;47.620;19.560;2023-06-22T14:27:35;33.00;31.80
43697;DHT22;29301;47.620;19.560;2023-06-22T14:30:00;32.60;32.20
43697;DHT22;29301;47.620;19.560;2023-06-22T14:32:28;32.30;33.30
43697;DHT22;29301;47.620;19.560;2023-06-22T14:34:56;32.20;33.40
43697;DHT22;29301;47.620;19.560;2023-06-22T14:37:22;32.10;33.00
43697;DHT22;29301;47.620;19.560;2023-06-22T14:39:48;31.90;33.10
43697;DHT22;29301;47.620;19.560;2023-06-22T14:42:13;32.00;34.30
43697;DHT22;29301;47.620;19.560;2023-06-22T14:44:39;32.10;33.80
43697;DHT22;29301;47.620;19.560;2023-06-22T14:47:05;32.30;33.30
43697;DHT22;29301;47.620;19.560;2023-06-22T14:49:31;32.30;33.30
43697;DHT22;29301;47.620;19.560;2023-06-22T14:51:56;32.20;33.40
43697;DHT22;29301;47.620;19.560;2023-06-22T14:54:22;32.30;33.10
43697;DHT22;29301;47.620;19.560;2023-06-22T14:56:48;32.20;34.80
43697;DHT22;29301;47.620;19.560;2023-06-22T14:59:14;32.30;34.50
43697;DHT22;29301;47.620;19.560;2023-06-22T15:01:40;32.30;33.70
43697;DHT22;29301;47.620;19.560;2023-06-22T15:04:05;32.10;34.10
43697;DHT22;29301;47.620;19.560;2023-06-22T15:06:31;32.30;34.00
43697;DHT22;29301;47.620;19.560;2023-06-22T15:08:57;32.30;34.30
43697;DHT22;29301;47.620;19.560;2023-06-22T15:11:22;32.30;34.10
43697;DHT22;29301;47.620;19.560;2023-06-22T15:13:48;32.30;34.20